Bridgeport Valley, California Weather observations

Data are for 10 minute period ending at time listed.
 Day   Time   Solar   Ave.   Ave.  Ave.  Vector  Max.   Baro.   Total    
  of    of     Rad.   Air    Rel.  Wind   Wind   Wind  Press.  Precip.   
Year   Day            Temp.  Hum.  Speed  Dir.   Gust                    
2014   (PST)  Kw/m2    F      %     mph   deg.    mph    mb.     in.     
-------------------------------------------------------------------------
 211   10:30   0.25   62.5    59    2.5     2     3.9   809.7    0.00 
 211   10:40   0.31   63.1    60    1.7    14     3.0   809.8    0.00 
 211   10:50   0.36   63.8    63    2.1    46     3.4   809.7    0.00 
 211   11:00   0.38   64.6    62    2.6    27     4.7   809.6    0.00 
 211   11:10   0.43   65.4    60    3.6    68     5.1   809.6    0.00 
 211   11:20   0.41   65.6    56    3.7    48     5.3   809.6    0.00 
 211   11:30   0.39   67.2    53    6.4    70    17.5   809.5    0.00 
 211   11:40   0.39   69.0    43   14.3   141    19.9   809.4    0.00 
 211   11:50   0.37   69.2    42   11.8   140    18.3   809.3    0.00 
 211   12:00   0.41   69.3    42   12.4   145    19.1   809.3    0.00 
 211   12:10   0.43   69.9    40   13.3   145    18.9   809.2    0.00 
 211   12:20   0.77   71.8    39   13.4   149    18.8   809.1    0.00 
 211   12:30   0.62   72.5    37   14.2   145    22.1   808.9    0.00 
 211   12:40   0.51   71.8    36   13.2   156    19.4   808.8    0.00 
 211   12:50   0.87   73.7    36   12.1   144    18.8   808.6    0.00 
 211   13:00   0.87   75.0    34   13.8   134    22.4   808.3    0.00 
 211   13:10   0.80   75.2    34   12.5   141    17.7   808.3    0.00 
 211   13:20   0.75   75.3    33   11.9   138    18.3   808.2    0.00 
 211   13:30   0.73   75.1    33   14.1   127    21.3   808.2    0.00 
 211   13:40   0.72   74.4    31   16.0   135    21.3   808.1    0.00 
 211   13:50   0.65   74.3    32   13.3   136    19.5   808.1    0.00 
 211   14:00   0.52   73.7    33   14.2   140    24.3   808.0    0.00 
 211   14:10   0.54   73.6    32   13.4   141    18.7   807.9    0.00 
 211   14:20   0.59   74.2    33   13.2   136    20.0   807.8    0.00 
 211   14:30   0.53   74.1    34   10.8   139    15.9   807.8    0.00 
 211   14:40   0.45   73.9    34   10.1   145    18.0   807.8    0.00 
 211   14:50   0.42   73.5    34    9.5   138    14.2   807.8    0.00 
 211   15:00   0.38   73.4    34    8.2   147    12.9   807.8    0.00 
 211   15:10   0.43   73.5    34    8.6   143    12.3   807.8    0.00 
 211   15:20   0.36   73.6    33    8.5   144    12.8   807.8    0.00 
 211   15:30   0.31   73.1    33    9.3   132    12.9   807.8    0.00 
 211   15:40   0.25   72.4    35    8.1   139    11.8   807.8    0.00 
 211   15:50   0.20   71.7    36    7.5   144    10.8   807.6    0.00 
 211   16:00   0.13   71.1    38    5.7   141     8.5   807.7    0.00 
 211   16:10   0.10   70.0    41    6.2   140     9.0   807.7    0.00 
 211   16:20   0.11   69.4    43    6.0   145     9.6   807.6    0.00 
 211   16:30   0.10   69.1    45    6.8   156    10.0   807.7    0.00 
 211   16:40   0.08   68.6    46    5.6   158     8.5   807.7    0.00 
 211   16:50   0.09   68.3    47    4.3   156     6.6   807.8    0.00 
 211   17:00   0.09   68.5    47    3.4   168     6.4   807.9    0.00 
 211   17:10   0.07   68.6    45    6.2   288    11.4   808.0    0.00 
 211   17:20   0.08   69.5    40    8.6   332    20.4   808.0    0.00 
 211   17:30   0.06   68.3    47    4.6   327     6.4   808.1    0.00 
 211   17:40   0.08   66.8    54    4.0   339     5.6   808.0    0.00 
 211   17:50   0.09   66.4    55    4.7   345     8.9   808.0    0.00 
 211   18:00   0.08   65.7    57    3.8   344     5.0   808.1    0.00 
 211   18:10   0.06   65.3    56    4.1   318     5.6   808.1    0.00 
 211   18:20   0.04   65.1    55    3.6   319     5.5   808.1    0.00 
 211   18:30   0.03   64.2    57    3.1   325     4.2   808.1    0.00 
 211   18:40   0.03   64.3    55    2.6   354     5.7   808.2    0.00 
 211   18:50   0.02   62.7    60    2.2   292     3.3   808.2    0.00 
 211   19:00   0.02   61.8    60    3.8   304     5.2   808.3    0.00 
 211   19:10   0.02   62.0    58    4.9   317     6.1   808.3    0.00 
 211   19:20   0.01   61.3    60    4.4   332     5.9   808.4    0.00 
 211   19:30   0.00   60.9    61    3.9   300     6.5   808.6    0.00 
 211   19:40   0.00   61.4    58    4.2   264     7.4   808.7    0.00 
 211   19:50   0.00   60.2    62    3.7   259     5.6   808.7    0.00 
 211   20:00   0.00   57.8    68    3.7   274     5.5   808.8    0.00 
 211   20:10   0.00   58.2    68    4.1   282     5.1   808.9    0.00 
 211   20:20   0.00   57.6    69    2.5   204     7.5   809.1    0.00 
 211   20:30   0.00   55.7    71    2.9   162     4.0   809.2    0.00 
 211   20:40   0.00   54.0    74    2.6   196     3.9   809.3    0.00 
 211   20:50   0.00   54.2    74    3.5   205     4.7   809.3    0.00 
 211   21:00   0.00   54.1    73    3.6   184     4.9   809.4    0.00 
 211   21:10   0.00   52.5    76    3.5   215     5.2   809.4    0.00 
 211   21:20   0.00   51.8    78    4.8   182     7.5   809.3    0.00 
 211   21:30   0.00   51.0    78    4.2   156     5.4   809.3    0.00 
 211   21:40   0.00   50.6    79    3.3   231     4.3   809.3    0.00 
 211   21:50   0.00   52.7    74    1.6   243     2.6   809.3    0.00 
 211   22:00   0.00   54.3    70    2.5   256     3.7   809.3    0.00 
 211   22:10   0.00   54.0    71    3.1   244     4.1   809.3    0.00 
 211   22:20   0.00   55.4    67    3.5   189     4.5   809.2    0.00 
 211   22:30   0.00   53.1    71    2.3   189     3.9   809.2    0.00 
 211   22:40   0.00   50.3    78    3.4   219     4.3   809.2    0.00 
 211   22:50   0.00   49.2    81    2.1   320     2.9   809.2    0.00 
 211   23:00   0.00   51.7    73    0.6   290     2.4   809.2    0.00 
 211   23:10   0.00   51.7    72    1.3   180     3.4   809.3    0.00 
 211   23:20   0.00   49.3    78    4.0   212     5.3   809.3    0.00 
 211   23:30   0.00   46.7    84    3.8   227     5.8   809.2    0.00 
 211   23:40   0.00   47.9    82    2.0   254     3.4   809.1    0.00 
 211   23:50   0.00   47.3    81    3.2    85     5.5   809.1    0.00 
 212    0:00   0.00   44.4    88    3.8   158     4.6   809.1    0.00 
 212    0:10   0.00   43.8    89    1.2   159     2.5   809.1    0.00 
 212    0:20   0.00   45.6    88    1.1   257     1.8   809.0    0.00 
 212    0:30   0.00   46.3    84    1.6   285     3.3   809.0    0.00 
 212    0:40   0.00   48.6    80    1.5   239     2.0   809.0    0.00 
 212    0:50   0.00   48.7    80    2.5   225     4.5   809.0    0.00 
 212    1:00   0.00   46.6    86    2.4   228     4.4   809.0    0.00 
 212    1:10   0.00   49.7    79    1.8   115     3.1   809.0    0.00 
 212    1:20   0.00   47.1    80    3.4   162     4.7   809.0    0.00 
 212    1:30   0.00   42.4    89    2.5   189     4.5   808.9    0.00 
 212    1:40   0.00   42.1    92    0.2   253     1.6   808.9    0.00 
 212    1:50   0.00   43.8    90    2.9   197     4.2   808.8    0.00 
 212    2:00   0.00   44.4    86    3.2   211     4.7   808.7    0.00 
 212    2:10   0.00   43.9    89    1.5   286     3.8   808.7    0.00 
 212    2:20   0.00   44.3    86    3.1   188     4.8   808.6    0.00 
 212    2:30   0.00   44.1    87    1.1   220     2.3   808.6    0.00 
 212    2:40   0.00   44.5    87    1.8   288     3.4   808.5    0.00 
 212    2:50   0.00   45.3    87    2.2   236     2.7   808.6    0.00 
 212    3:00   0.00   46.0    84    1.2   214     2.3   808.6    0.00 
 212    3:10   0.00   44.3    86    2.2   231     4.5   808.6    0.00 
 212    3:20   0.00   41.7    91    3.9   194     4.8   808.5    0.00 
 212    3:30   0.00   40.5    90    3.1   176     4.7   808.4    0.00 
 212    3:40   0.00   39.4    93    2.3   214     3.4   808.4    0.00 
 212    3:50   0.00   40.1    93    3.1   233     3.8   808.3    0.00 
 212    4:00   0.00   40.5    92    1.1   252     2.0   808.3    0.00 
 212    4:10   0.00   40.6    92    1.7   299     3.9   808.4    0.00 
 212    4:20   0.00   42.0    91    1.3    25     3.7   808.3    0.00 
 212    4:30   0.00   41.3    91    1.3    29     3.0   808.4    0.00 
 212    4:40   0.00   41.1    93    1.8   268     2.8   808.5    0.00 
 212    4:50   0.00   42.0    92    2.7   226     3.8   808.5    0.00 
 212    5:00   0.00   41.0    91    1.7   206     2.8   808.5    0.00 
 212    5:10   0.01   39.8    92    0.1   245     0.9   808.6    0.00 
 212    5:20   0.02   39.7    92    1.1   220     2.7   808.6    0.00 
 212    5:30   0.04   40.8    94    1.4   254     2.4   808.6    0.00 
 212    5:40   0.09   42.4    93    1.2   200     2.6   808.7    0.00 
 212    5:50   0.11   44.3    90    1.5   188     2.2   808.7    0.00 
 212    6:00   0.13   47.1    86    0.9   178     1.8   808.7    0.00 
 212    6:10   0.15   49.4    81    0.6   139     1.5   808.8    0.00 
 212    6:20   0.17   51.9    77    0.0     0     0.0   808.8    0.00 
 212    6:30   0.20   53.0    74    0.4   313     1.3   808.9    0.00 
 212    6:40   0.23   55.1    69    0.1     7     1.3   808.9    0.00 
 212    6:50   0.27   56.6    66    0.4    18     1.6   808.9    0.00 
 212    7:00   0.30   57.3    65    1.1    55     1.9   808.9    0.00 
 212    7:10   0.33   57.9    65    0.6   229     1.5   808.8    0.00 
 212    7:20   0.37   59.5    63    1.1    67     2.8   808.8    0.00 
 212    7:30   0.40   60.7    60    0.4    47     1.8   808.8    0.00 
 212    7:40   0.43   63.7    54    0.2    25     1.8   808.8    0.00 
 212    7:50   0.46   63.3    55    1.3     9     3.4   808.7    0.00 
 212    8:00   0.49   62.4    56    1.4   334     3.1   808.6    0.00 
 212    8:10   0.53   63.4    55    1.8   355     4.1   808.4    0.00 
 212    8:20   0.56   64.4    54    1.9    20     3.9   808.3    0.00 
 212    8:30   0.59   65.5    52    1.5    15     3.6   808.2    0.00 
 212    8:40   0.62   66.4    53    1.8   333     3.8   808.0    0.00 
 212    8:50   0.65   67.0    54    2.7   348     5.5   807.9    0.00 
 212    9:00   0.68   67.6    50    2.5   355     4.5   807.8    0.00 
 212    9:10   0.70   68.3    52    2.8   324     5.0   807.7    0.00 
 212    9:20   0.73   69.3    51    2.3   320     4.1   807.6    0.00 
 212    9:30   0.76   71.0    47    1.9   357     4.2   807.6    0.00 
 212    9:40   0.78   72.4    42    1.6   360     3.7   807.4    0.00 
 212    9:50   0.81   74.2    38    1.3    21     3.1   807.3    0.00 
 212   10:00   0.83   75.8    35    1.4    30     3.5   807.2    0.00 
 212   10:10   0.85   77.2    31    1.9    98     4.5   807.2    0.00 
 212   10:20   0.87   77.3    29    1.6     1     4.2   807.1    0.00 

Return to Bridgeport Valley graphs page.


Western Regional Climate Center,wrcc@dri.edu